createdAt,value
2023-04-18T00:02:36.614Z,6.93
2023-04-18T00:05:38.152Z,6.28
2023-04-18T00:08:38.970Z,6.70
2023-04-18T00:11:39.963Z,5.53
2023-04-18T00:14:41.282Z,6.10
2023-04-18T00:17:42.059Z,6.78
2023-04-18T00:20:43.648Z,6.50
2023-04-18T00:23:46.281Z,6.40
2023-04-18T00:26:47.357Z,6.25
2023-04-18T00:29:48.899Z,6.75
2023-04-18T00:32:50.927Z,6.85
2023-04-18T00:35:52.513Z,7.07
2023-04-18T00:38:53.721Z,6.20
2023-04-18T00:41:54.862Z,6.78
2023-04-18T00:44:55.851Z,7.50
2023-04-18T00:47:56.950Z,6.90
2023-04-18T00:50:58.308Z,7.85
2023-04-18T00:53:59.736Z,7.38
2023-04-18T00:57:01.324Z,6.72
2023-04-18T01:00:10.175Z,7.22
2023-04-18T01:03:11.322Z,7.28
2023-04-18T01:06:14.418Z,6.88
2023-04-18T01:09:16.190Z,7.65
2023-04-18T01:12:18.793Z,8.15
2023-04-18T01:15:19.698Z,7.47
2023-04-18T01:18:21.106Z,7.35
2023-04-18T01:21:22.512Z,8.85
2023-04-18T01:24:26.072Z,8.45
2023-04-18T01:27:27.311Z,7.75
2023-04-18T01:30:28.425Z,8.23
2023-04-18T01:33:29.736Z,8.40
2023-04-18T01:36:32.208Z,8.00
2023-04-18T01:39:33.043Z,8.35
2023-04-18T01:42:33.853Z,8.43
2023-04-18T01:45:35.027Z,7.75
2023-04-18T01:48:36.414Z,8.25
2023-04-18T01:51:39.185Z,7.97
2023-04-18T01:54:41.149Z,8.23
2023-04-18T01:57:42.301Z,8.13
2023-04-18T02:00:43.895Z,8.00
2023-04-18T02:03:45.318Z,8.05
2023-04-18T02:06:46.825Z,8.15
2023-04-18T02:09:47.685Z,8.43
2023-04-18T02:12:48.943Z,8.38
2023-04-18T02:15:49.761Z,7.60
2023-04-18T02:18:53.017Z,7.97
2023-04-18T02:21:54.581Z,8.20
2023-04-18T02:24:55.500Z,8.75
2023-04-18T02:27:57.862Z,8.02
2023-04-18T02:31:00.943Z,8.48
2023-04-18T02:34:02.096Z,8.35
2023-04-18T02:37:03.545Z,8.10
2023-04-18T02:40:07.525Z,8.82
2023-04-18T02:43:08.574Z,8.60
2023-04-18T02:46:09.561Z,8.80
2023-04-18T02:49:10.933Z,8.75
2023-04-18T02:52:12.295Z,8.95
2023-04-18T02:55:13.696Z,9.77
2023-04-18T02:58:17.200Z,9.60
2023-04-18T03:01:47.508Z,9.45
2023-04-18T03:04:51.772Z,10.60
2023-04-18T03:07:53.112Z,10.45
2023-04-18T03:10:56.389Z,10.48
2023-04-18T03:13:59.303Z,11.23
2023-04-18T03:17:06.257Z,11.52
2023-04-18T03:20:13.528Z,12.35
2023-04-18T03:23:15.058Z,11.50
2023-04-18T03:26:16.751Z,11.82
2023-04-18T03:29:18.781Z,12.90
2023-04-18T03:32:21.277Z,12.77
2023-04-18T03:35:23.088Z,12.48
2023-04-18T03:38:24.305Z,14.38
2023-04-18T03:41:25.404Z,13.82
2023-04-18T03:44:26.116Z,13.43
2023-04-18T03:47:29.647Z,14.40
2023-04-18T03:50:32.466Z,13.48
2023-04-18T03:53:35.192Z,14.02
2023-04-18T03:56:36.910Z,15.18
2023-04-18T03:59:38.117Z,15.38
2023-04-18T04:02:41.153Z,15.25
2023-04-18T04:05:43.945Z,15.82
2023-04-18T04:08:45.496Z,16.25
2023-04-18T04:11:47.263Z,15.82
2023-04-18T04:14:50.018Z,16.75
2023-04-18T04:17:51.739Z,15.18
2023-04-18T04:20:53.289Z,16.67
2023-04-18T04:24:07.260Z,16.15
2023-04-18T04:27:15.061Z,17.08
2023-04-18T04:30:17.146Z,16.40
2023-04-18T04:33:21.373Z,15.45
2023-04-18T04:36:24.980Z,16.20
2023-04-18T04:39:27.359Z,15.95
2023-04-18T04:42:49.390Z,16.23
2023-04-18T04:45:57.832Z,16.27
2023-04-18T04:48:59.011Z,15.13
2023-04-18T04:52:01.969Z,14.52
2023-04-18T04:55:03.584Z,16.05
2023-04-18T04:58:04.863Z,15.73
2023-04-18T05:01:18.971Z,15.52
2023-04-18T05:04:20.421Z,15.75
2023-04-18T05:07:22.130Z,15.52
2023-04-18T05:10:23.413Z,15.73
2023-04-18T05:13:24.411Z,16.38
2023-04-18T05:16:25.458Z,15.13
2023-04-18T05:19:26.737Z,15.18
2023-04-18T05:22:27.912Z,15.60
2023-04-18T05:25:30.085Z,15.75
2023-04-18T05:28:31.500Z,15.18
2023-04-18T05:31:32.653Z,16.25
2023-04-18T05:34:38.612Z,15.70
2023-04-18T05:37:40.190Z,15.13
2023-04-18T05:40:42.664Z,14.85
2023-04-18T05:43:48.254Z,14.75
2023-04-18T05:46:55.912Z,15.07
2023-04-18T05:49:57.155Z,14.65
2023-04-18T05:52:59.473Z,15.02
2023-04-18T05:56:00.823Z,14.23
2023-04-18T05:59:01.883Z,14.40
2023-04-18T06:02:03.050Z,12.85
2023-04-18T06:05:05.090Z,14.57
2023-04-18T06:08:07.568Z,12.55
2023-04-18T06:11:09.297Z,14.13
2023-04-18T06:14:10.708Z,13.05
2023-04-18T06:17:13.588Z,13.52
2023-04-18T06:20:14.568Z,13.32
2023-04-18T06:23:15.919Z,14.20
2023-04-18T06:26:17.513Z,13.85
2023-04-18T06:29:18.456Z,13.95
2023-04-18T06:32:19.317Z,15.05
2023-04-18T06:35:20.933Z,14.20
2023-04-18T06:38:21.978Z,13.60
2023-04-18T06:41:23.065Z,13.15
2023-04-18T06:44:24.189Z,13.82
2023-04-18T06:47:25.964Z,12.93
2023-04-18T06:50:27.557Z,12.70
2023-04-18T06:53:28.712Z,12.30
2023-04-18T06:56:29.942Z,11.32
2023-04-18T06:59:30.974Z,12.70
2023-04-18T07:02:32.404Z,12.32
2023-04-18T07:05:33.778Z,12.20
2023-04-18T07:08:36.019Z,11.23
2023-04-18T07:11:39.334Z,11.45
2023-04-18T07:14:40.648Z,10.57
2023-04-18T07:17:41.959Z,10.75
2023-04-18T07:20:43.399Z,11.10
2023-04-18T07:23:44.877Z,11.13
2023-04-18T07:26:46.001Z,10.38
2023-04-18T07:29:47.095Z,9.80
2023-04-18T07:32:48.212Z,10.45
2023-04-18T07:35:50.512Z,10.10
2023-04-18T07:38:52.078Z,9.13
2023-04-18T07:41:52.952Z,9.50
2023-04-18T07:45:00.060Z,9.23
2023-04-18T07:48:02.019Z,8.68
2023-04-18T07:51:04.241Z,9.00
2023-04-18T07:54:05.625Z,8.40
2023-04-18T07:57:06.776Z,8.32
2023-04-18T08:00:08.578Z,8.80
2023-04-18T08:03:13.935Z,7.88
2023-04-18T08:06:15.184Z,8.45
2023-04-18T08:09:16.172Z,7.50
2023-04-18T08:12:17.545Z,7.50
2023-04-18T08:15:18.884Z,8.63
2023-04-18T08:18:20.286Z,7.28
2023-04-18T08:21:21.489Z,8.63
2023-04-18T08:24:22.298Z,8.30
2023-04-18T08:27:23.228Z,8.57
2023-04-18T08:30:24.578Z,8.23
2023-04-18T08:33:25.711Z,8.07
2023-04-18T08:36:27.047Z,8.98
2023-04-18T08:39:28.304Z,8.25
2023-04-18T08:42:30.353Z,8.77
2023-04-18T08:45:31.675Z,8.80
2023-04-18T08:48:32.769Z,9.57
2023-04-18T08:51:34.118Z,9.98
2023-04-18T08:54:37.489Z,10.45
2023-04-18T08:57:38.614Z,10.15
2023-04-18T09:00:39.534Z,10.05
2023-04-18T09:03:43.373Z,9.73
2023-04-18T09:07:06.192Z,10.40
2023-04-18T09:10:08.226Z,10.23
2023-04-18T09:13:10.273Z,10.00
2023-04-18T09:16:12.071Z,11.27
2023-04-18T09:19:18.768Z,10.10
2023-04-18T09:22:20.420Z,11.00
2023-04-18T09:25:35.147Z,10.50
2023-04-18T09:28:37.679Z,11.82
2023-04-18T09:32:01.254Z,11.70
2023-04-18T09:35:05.640Z,10.88
2023-04-18T09:38:08.379Z,11.02
2023-04-18T09:41:15.892Z,11.10
2023-04-18T09:44:17.847Z,10.88
2023-04-18T09:47:19.200Z,10.07
2023-04-18T09:50:21.120Z,10.98
2023-04-18T09:53:23.041Z,10.55
2023-04-18T09:56:27.322Z,10.32
2023-04-18T09:59:55.190Z,10.45
2023-04-18T10:03:06.538Z,9.57
2023-04-18T10:06:11.263Z,9.68
2023-04-18T10:09:14.834Z,10.05
2023-04-18T10:12:18.409Z,9.25
2023-04-18T10:15:23.263Z,9.20
2023-04-18T10:18:25.056Z,8.50
2023-04-18T10:21:29.312Z,8.93
2023-04-18T10:24:50.447Z,7.75
2023-04-18T10:27:57.706Z,7.85
2023-04-18T10:31:05.901Z,6.88
2023-04-18T10:34:07.649Z,6.90
2023-04-18T10:37:08.827Z,6.85
2023-04-18T10:40:11.227Z,5.97
2023-04-18T10:43:13.563Z,6.22
2023-04-18T10:46:24.314Z,6.03
2023-04-18T10:49:32.631Z,5.43
2023-04-18T10:52:34.727Z,5.40
2023-04-18T10:55:38.024Z,5.68
2023-04-18T10:58:44.352Z,5.57
2023-04-18T11:01:49.382Z,4.82
2023-04-18T11:04:55.603Z,5.97
2023-04-18T11:07:56.726Z,4.90
2023-04-18T11:10:59.904Z,5.10
2023-04-18T11:14:02.410Z,5.68
2023-04-18T11:17:21.615Z,5.25
2023-04-18T11:20:22.662Z,4.80
2023-04-18T11:23:25.240Z,5.03
2023-04-18T11:26:27.481Z,5.15
2023-04-18T11:29:28.643Z,5.05
2023-04-18T11:32:30.055Z,4.68
2023-04-18T11:35:31.399Z,4.80
2023-04-18T11:38:32.616Z,4.63
2023-04-18T11:41:34.050Z,4.75
2023-04-18T11:44:37.408Z,6.00
2023-04-18T11:47:39.672Z,4.35
2023-04-18T11:50:41.171Z,3.97
2023-04-18T11:53:42.061Z,4.65
2023-04-18T11:56:49.723Z,4.68
2023-04-18T11:59:58.363Z,4.75
2023-04-18T12:03:02.014Z,4.60
2023-04-18T12:06:03.559Z,4.70
2023-04-18T12:09:05.988Z,4.97
2023-04-18T12:12:07.098Z,5.00
2023-04-18T12:15:14.656Z,4.90
2023-04-18T12:18:20.060Z,4.95
2023-04-18T12:21:21.538Z,6.07
2023-04-18T12:24:27.532Z,6.18
2023-04-18T12:27:54.352Z,5.47
2023-04-18T12:30:56.053Z,6.03
2023-04-18T12:34:00.287Z,5.68
2023-04-18T12:37:01.557Z,5.78
2023-04-18T12:40:02.915Z,5.20
2023-04-18T12:43:04.008Z,5.05
2023-04-18T12:46:05.401Z,6.00
2023-04-18T12:49:06.584Z,6.15
2023-04-18T12:52:07.891Z,6.05
2023-04-18T12:55:10.575Z,5.75
2023-04-18T12:58:11.571Z,5.35
2023-04-18T13:01:14.351Z,5.75
2023-04-18T13:04:16.010Z,5.97
2023-04-18T13:07:18.734Z,5.70
2023-04-18T13:10:23.431Z,5.07
2023-04-18T13:13:24.599Z,4.85
2023-04-18T13:16:26.367Z,5.13
2023-04-18T13:19:27.141Z,4.78
2023-04-18T13:22:28.697Z,5.47
2023-04-18T13:25:29.724Z,5.20
2023-04-18T13:28:30.744Z,5.57
2023-04-18T13:31:32.142Z,5.20
2023-04-18T13:34:38.428Z,4.82
2023-04-18T13:37:40.048Z,5.70
2023-04-18T13:40:40.996Z,5.22
2023-04-18T13:43:41.751Z,5.55
2023-04-18T13:46:42.592Z,5.57
2023-04-18T13:49:43.980Z,5.10
2023-04-18T13:52:45.014Z,5.53
2023-04-18T13:55:46.185Z,5.03
2023-04-18T13:58:47.603Z,4.95
2023-04-18T14:01:49.505Z,5.63
2023-04-18T14:04:52.154Z,5.20
2023-04-18T14:07:53.490Z,5.07
2023-04-18T14:10:54.673Z,5.55
2023-04-18T14:13:55.728Z,5.38
2023-04-18T14:16:56.941Z,5.15
2023-04-18T14:19:57.861Z,5.28
2023-04-18T14:22:58.830Z,6.00
2023-04-18T14:26:00.621Z,5.80
2023-04-18T14:29:02.091Z,5.85
2023-04-18T14:32:03.003Z,6.70
2023-04-18T14:35:07.882Z,5.93
2023-04-18T14:38:08.820Z,6.47
2023-04-18T14:41:09.735Z,5.45
2023-04-18T14:44:11.258Z,5.28
2023-04-18T14:47:12.214Z,5.28
2023-04-18T14:50:13.771Z,5.38
2023-04-18T14:53:15.120Z,5.50
2023-04-18T14:56:16.463Z,5.28
2023-04-18T14:59:17.785Z,5.28
2023-04-18T15:02:19.168Z,5.75
2023-04-18T15:05:24.009Z,5.15
2023-04-18T15:08:25.438Z,5.55
2023-04-18T15:11:27.506Z,5.30
2023-04-18T15:14:29.161Z,5.20
2023-04-18T15:17:31.556Z,4.93
2023-04-18T15:20:34.604Z,4.72
2023-04-18T15:23:35.572Z,4.30
2023-04-18T15:26:37.250Z,5.07
2023-04-18T15:29:39.264Z,4.50
2023-04-18T15:32:42.367Z,4.65
2023-04-18T15:35:43.491Z,5.18
2023-04-18T15:38:44.930Z,5.25
2023-04-18T15:41:47.514Z,4.95
2023-04-18T15:44:49.479Z,4.85
2023-04-18T15:47:51.080Z,5.60
2023-04-18T15:50:52.583Z,4.88
2023-04-18T15:53:54.800Z,4.88
2023-04-18T15:56:56.403Z,5.10
2023-04-18T15:59:58.705Z,5.03
2023-04-18T16:03:00.373Z,4.88
2023-04-18T16:06:01.640Z,4.55
2023-04-18T16:09:02.542Z,4.50
2023-04-18T16:12:04.934Z,4.40
2023-04-18T16:15:08.810Z,4.35
2023-04-18T16:18:10.783Z,4.60
2023-04-18T16:21:17.845Z,4.20
2023-04-18T16:24:19.010Z,4.55
2023-04-18T16:27:20.046Z,4.13
2023-04-18T16:30:21.849Z,4.45
2023-04-18T16:33:26.224Z,4.78
2023-04-18T16:36:27.667Z,5.43
2023-04-18T16:39:30.274Z,4.75
2023-04-18T16:42:31.921Z,4.88
2023-04-18T16:45:33.535Z,4.85
2023-04-18T16:48:34.825Z,5.40
2023-04-18T16:51:37.414Z,5.30
2023-04-18T16:54:38.711Z,4.82
2023-04-18T16:57:39.583Z,5.45
2023-04-18T17:00:40.763Z,5.00
2023-04-18T17:03:42.607Z,5.43
2023-04-18T17:06:43.987Z,5.97
2023-04-18T17:09:44.855Z,5.35
2023-04-18T17:12:49.313Z,6.20
2023-04-18T17:15:50.503Z,4.80
2023-04-18T17:18:51.801Z,5.68
2023-04-18T17:21:52.615Z,4.47
2023-04-18T17:24:53.822Z,5.10
2023-04-18T17:27:54.665Z,5.30
2023-04-18T17:30:57.533Z,5.53
2023-04-18T17:33:58.561Z,5.47
2023-04-18T17:36:59.571Z,4.82
2023-04-18T17:40:01.540Z,5.43
2023-04-18T17:43:02.994Z,5.40
2023-04-18T17:46:04.361Z,5.40
2023-04-18T17:49:05.287Z,5.47
2023-04-18T17:52:06.818Z,5.47
2023-04-18T17:55:09.062Z,6.65
2023-04-18T17:58:10.284Z,5.38
2023-04-18T18:01:19.892Z,6.53
2023-04-18T18:04:23.001Z,5.88
2023-04-18T18:07:25.301Z,6.60
2023-04-18T18:10:26.588Z,6.72
2023-04-18T18:13:27.472Z,5.93
2023-04-18T18:16:28.428Z,5.80
2023-04-18T18:19:29.664Z,5.63
2023-04-18T18:22:30.515Z,6.00
2023-04-18T18:25:31.945Z,5.35
2023-04-18T18:28:33.487Z,6.07
2023-04-18T18:31:34.310Z,5.40
2023-04-18T18:34:36.388Z,5.60
2023-04-18T18:37:37.402Z,6.13
2023-04-18T18:40:41.107Z,5.72
2023-04-18T18:43:42.530Z,6.00
2023-04-18T18:46:43.451Z,6.25
2023-04-18T18:49:44.721Z,5.50
2023-04-18T18:52:46.316Z,5.82
2023-04-18T18:55:47.502Z,6.35
2023-04-18T18:58:48.814Z,6.30
2023-04-18T19:01:49.761Z,6.68
2023-04-18T19:04:51.275Z,5.93
2023-04-18T19:07:52.498Z,6.30
2023-04-18T19:10:53.370Z,6.18
2023-04-18T19:13:54.583Z,6.93
2023-04-18T19:16:56.182Z,6.97
2023-04-18T19:19:59.448Z,6.47
2023-04-18T19:23:00.370Z,6.93
2023-04-18T19:26:01.283Z,7.07
2023-04-18T19:29:02.358Z,6.55
2023-04-18T19:32:03.731Z,6.80
2023-04-18T19:35:06.032Z,6.68
2023-04-18T19:38:07.035Z,6.50
2023-04-18T19:41:07.941Z,6.90
2023-04-18T19:44:08.953Z,6.03
2023-04-18T19:47:09.977Z,7.35
2023-04-18T19:50:11.704Z,6.38
2023-04-18T19:53:12.759Z,6.25
2023-04-18T19:56:15.123Z,7.00
2023-04-18T19:59:16.554Z,6.68
2023-04-18T20:02:17.828Z,7.03
2023-04-18T20:05:19.569Z,6.88
2023-04-18T20:08:20.707Z,7.55
2023-04-18T20:11:22.379Z,6.68
2023-04-18T20:14:23.300Z,7.07
2023-04-18T20:17:24.207Z,7.22
2023-04-18T20:20:25.584Z,7.22
2023-04-18T20:23:26.513Z,7.13
2023-04-18T20:26:27.338Z,7.05
2023-04-18T20:29:28.574Z,6.82
2023-04-18T20:32:29.783Z,6.88
2023-04-18T20:35:31.741Z,8.10
2023-04-18T20:38:33.009Z,7.10
2023-04-18T20:41:34.999Z,7.28
2023-04-18T20:44:36.291Z,8.45
2023-04-18T20:47:37.668Z,8.60
2023-04-18T20:50:40.357Z,8.02
2023-04-18T20:53:41.453Z,7.78
2023-04-18T20:56:42.683Z,8.38
2023-04-18T20:59:43.627Z,8.85
2023-04-18T21:02:45.562Z,8.98
2023-04-18T21:05:46.667Z,9.13
2023-04-18T21:08:47.908Z,8.20
2023-04-18T21:11:49.024Z,9.70
2023-04-18T21:14:49.733Z,10.65
2023-04-18T21:17:51.379Z,10.20
2023-04-18T21:20:55.115Z,9.38
2023-04-18T21:23:56.383Z,10.35
2023-04-18T21:26:58.030Z,9.57
2023-04-18T21:29:59.012Z,9.95
2023-04-18T21:33:00.144Z,10.43
2023-04-18T21:36:01.085Z,10.23
2023-04-18T21:39:02.477Z,10.30
2023-04-18T21:42:03.314Z,10.45
2023-04-18T21:45:05.517Z,9.85
2023-04-18T21:48:09.308Z,8.73
2023-04-18T21:51:11.948Z,8.70
2023-04-18T21:54:12.955Z,9.52
2023-04-18T21:57:14.292Z,10.15
2023-04-18T22:00:16.815Z,9.63
2023-04-18T22:03:17.953Z,10.38
2023-04-18T22:06:20.980Z,9.60
2023-04-18T22:09:22.702Z,9.48
2023-04-18T22:12:24.746Z,9.82
2023-04-18T22:15:27.279Z,10.00
2023-04-18T22:18:33.967Z,10.18
2023-04-18T22:21:35.079Z,9.70
2023-04-18T22:24:36.128Z,9.65
2023-04-18T22:27:38.035Z,9.30
2023-04-18T22:30:38.924Z,10.95
2023-04-18T22:33:39.964Z,10.60
2023-04-18T22:36:40.928Z,10.50
2023-04-18T22:39:41.976Z,11.60
2023-04-18T22:42:43.713Z,10.32
2023-04-18T22:45:45.904Z,11.15
2023-04-18T22:48:47.072Z,11.30
2023-04-18T22:51:47.936Z,10.70
2023-04-18T22:54:48.672Z,11.55
2023-04-18T22:57:49.710Z,11.85
2023-04-18T23:00:51.269Z,12.27
2023-04-18T23:03:52.374Z,12.60
2023-04-18T23:06:53.552Z,11.85
2023-04-18T23:09:54.457Z,11.65
2023-04-18T23:12:55.811Z,12.48
2023-04-18T23:15:56.978Z,12.75
2023-04-18T23:18:58.377Z,12.50
2023-04-18T23:22:00.203Z,11.43
2023-04-18T23:25:01.086Z,11.73
2023-04-18T23:28:02.039Z,11.77
2023-04-18T23:31:03.391Z,11.82
2023-04-18T23:34:04.526Z,10.98
2023-04-18T23:37:05.993Z,11.38
2023-04-18T23:40:08.937Z,11.63
2023-04-18T23:43:10.156Z,11.98
2023-04-18T23:46:12.318Z,11.85
2023-04-18T23:49:14.003Z,11.88
2023-04-18T23:52:15.286Z,11.98
2023-04-18T23:55:17.369Z,11.55
2023-04-18T23:58:18.721Z,11.60
